sensor_id;sensor_type;location;lat;lon;timestamp;pressure;altitude;pressure_sealevel;temperature;humidity
15817;BME280;8009;50.070;8.232;2023-08-24T00:01:00;100148.34;;;22.12;53.02
15817;BME280;8009;50.070;8.232;2023-08-24T00:03:28;100152.94;;;23.09;50.62
15817;BME280;8009;50.070;8.232;2023-08-24T00:05:58;100157.44;;;21.98;53.67
15817;BME280;8009;50.070;8.232;2023-08-24T00:08:26;100150.56;;;22.61;51.93
15817;BME280;8009;50.070;8.232;2023-08-24T00:10:55;100162.66;;;21.70;54.67
15817;BME280;8009;50.070;8.232;2023-08-24T00:13:25;100147.81;;;22.47;52.49
15817;BME280;8009;50.070;8.232;2023-08-24T00:15:54;100142.44;;;22.53;52.02
15817;BME280;8009;50.070;8.232;2023-08-24T00:18:23;100145.00;;;23.21;50.46
15817;BME280;8009;50.070;8.232;2023-08-24T00:20:52;100146.78;;;22.33;53.15
15817;BME280;8009;50.070;8.232;2023-08-24T00:23:20;100137.03;;;23.11;50.78
15817;BME280;8009;50.070;8.232;2023-08-24T00:25:48;100132.94;;;22.26;53.06
15817;BME280;8009;50.070;8.232;2023-08-24T00:28:17;100138.13;;;22.95;50.74
15817;BME280;8009;50.070;8.232;2023-08-24T00:30:48;100150.47;;;22.84;51.51
15817;BME280;8009;50.070;8.232;2023-08-24T00:33:16;100143.97;;;22.03;53.39
15817;BME280;8009;50.070;8.232;2023-08-24T00:35:44;100133.09;;;22.99;50.77
15817;BME280;8009;50.070;8.232;2023-08-24T00:38:13;100146.88;;;22.25;53.68
15817;BME280;8009;50.070;8.232;2023-08-24T00:40:41;100143.38;;;22.46;52.11
15817;BME280;8009;50.070;8.232;2023-08-24T00:43:10;100142.72;;;22.29;52.73
15817;BME280;8009;50.070;8.232;2023-08-24T00:45:38;100149.81;;;21.85;53.30
15817;BME280;8009;50.070;8.232;2023-08-24T00:48:09;100152.91;;;21.82;53.40
15817;BME280;8009;50.070;8.232;2023-08-24T00:50:37;100156.78;;;21.50;54.02
15817;BME280;8009;50.070;8.232;2023-08-24T00:53:06;100145.06;;;21.25;54.53
15817;BME280;8009;50.070;8.232;2023-08-24T00:55:34;100156.72;;;21.35;54.24
15817;BME280;8009;50.070;8.232;2023-08-24T00:58:03;100167.22;;;21.78;53.49
15817;BME280;8009;50.070;8.232;2023-08-24T01:00:32;100151.06;;;22.50;51.61
15817;BME280;8009;50.070;8.232;2023-08-24T01:03:00;100171.16;;;22.21;52.74
15817;BME280;8009;50.070;8.232;2023-08-24T01:05:31;100159.50;;;21.96;52.36
15817;BME280;8009;50.070;8.232;2023-08-24T01:08:00;100159.50;;;22.63;50.81
15817;BME280;8009;50.070;8.232;2023-08-24T01:10:33;100162.97;;;21.90;52.86
15817;BME280;8009;50.070;8.232;2023-08-24T01:13:08;100168.22;;;21.62;53.83
15817;BME280;8009;50.070;8.232;2023-08-24T01:15:41;100143.56;;;22.59;51.06
15817;BME280;8009;50.070;8.232;2023-08-24T01:18:14;100151.06;;;21.60;53.78
15817;BME280;8009;50.070;8.232;2023-08-24T01:20:49;100146.81;;;22.48;52.59
15817;BME280;8009;50.070;8.232;2023-08-24T01:23:32;100149.53;;;21.57;54.61
15817;BME280;8009;50.070;8.232;2023-08-24T01:26:08;100139.50;;;22.25;51.98
15817;BME280;8009;50.070;8.232;2023-08-24T01:28:37;100142.81;;;21.83;53.89
15817;BME280;8009;50.070;8.232;2023-08-24T01:31:06;100144.22;;;21.94;53.18
15817;BME280;8009;50.070;8.232;2023-08-24T01:33:35;100149.09;;;21.69;54.21
15817;BME280;8009;50.070;8.232;2023-08-24T01:36:03;100134.19;;;21.63;54.38
15817;BME280;8009;50.070;8.232;2023-08-24T01:38:32;100140.72;;;21.62;53.89
15817;BME280;8009;50.070;8.232;2023-08-24T01:41:11;100145.81;;;21.50;54.09
15817;BME280;8009;50.070;8.232;2023-08-24T01:43:43;100133.25;;;22.08;53.05
15817;BME280;8009;50.070;8.232;2023-08-24T01:46:15;100132.50;;;22.00;52.94
15817;BME280;8009;50.070;8.232;2023-08-24T01:48:44;100134.56;;;21.98;53.60
15817;BME280;8009;50.070;8.232;2023-08-24T01:51:13;100135.72;;;21.65;53.90
15817;BME280;8009;50.070;8.232;2023-08-24T01:53:43;100134.97;;;21.26;54.93
15817;BME280;8009;50.070;8.232;2023-08-24T01:56:15;100133.47;;;21.46;55.58
15817;BME280;8009;50.070;8.232;2023-08-24T01:58:44;100130.53;;;21.48;55.04
15817;BME280;8009;50.070;8.232;2023-08-24T02:01:12;100129.81;;;21.54;55.00
15817;BME280;8009;50.070;8.232;2023-08-24T02:03:41;100123.91;;;21.42;55.41
15817;BME280;8009;50.070;8.232;2023-08-24T02:06:09;100122.69;;;21.45;55.09
15817;BME280;8009;50.070;8.232;2023-08-24T02:08:38;100110.47;;;21.85;53.97
15817;BME280;8009;50.070;8.232;2023-08-24T02:11:07;100111.69;;;21.82;55.17
15817;BME280;8009;50.070;8.232;2023-08-24T02:13:38;100115.06;;;21.70;54.78
15817;BME280;8009;50.070;8.232;2023-08-24T02:16:08;100117.19;;;22.20;53.63
15817;BME280;8009;50.070;8.232;2023-08-24T02:18:37;100110.69;;;22.13;53.92
15817;BME280;8009;50.070;8.232;2023-08-24T02:21:09;100095.06;;;21.61;55.56
15817;BME280;8009;50.070;8.232;2023-08-24T02:23:37;100085.72;;;21.85;55.19
15817;BME280;8009;50.070;8.232;2023-08-24T02:26:06;100088.38;;;21.78;54.80
15817;BME280;8009;50.070;8.232;2023-08-24T02:28:38;100073.84;;;22.37;53.52
15817;BME280;8009;50.070;8.232;2023-08-24T02:31:07;100076.50;;;22.96;51.59
15817;BME280;8009;50.070;8.232;2023-08-24T02:33:35;100069.66;;;22.11;53.71
15817;BME280;8009;50.070;8.232;2023-08-24T02:36:04;100074.44;;;22.98;51.46
15817;BME280;8009;50.070;8.232;2023-08-24T02:38:32;100070.72;;;22.25;53.24
15817;BME280;8009;50.070;8.232;2023-08-24T02:41:05;100071.09;;;22.52;52.66
15817;BME280;8009;50.070;8.232;2023-08-24T02:43:34;100064.28;;;22.18;53.50
15817;BME280;8009;50.070;8.232;2023-08-24T02:46:07;100054.16;;;22.55;53.04
15817;BME280;8009;50.070;8.232;2023-08-24T02:48:36;100054.78;;;22.21;54.31
15817;BME280;8009;50.070;8.232;2023-08-24T02:51:05;100056.78;;;22.42;53.25
15817;BME280;8009;50.070;8.232;2023-08-24T02:53:33;100057.44;;;22.80;53.39
15817;BME280;8009;50.070;8.232;2023-08-24T02:56:02;100056.00;;;22.99;51.64
15817;BME280;8009;50.070;8.232;2023-08-24T02:58:31;100060.38;;;22.27;53.65
15817;BME280;8009;50.070;8.232;2023-08-24T03:01:03;100057.13;;;21.94;55.18
15817;BME280;8009;50.070;8.232;2023-08-24T03:03:35;100057.03;;;22.32;54.10
15817;BME280;8009;50.070;8.232;2023-08-24T03:06:05;100044.09;;;22.62;53.74
15817;BME280;8009;50.070;8.232;2023-08-24T03:08:34;100049.88;;;21.63;56.37
15817;BME280;8009;50.070;8.232;2023-08-24T03:11:03;100048.84;;;21.64;56.63
15817;BME280;8009;50.070;8.232;2023-08-24T03:13:31;100042.84;;;21.46;56.82
15817;BME280;8009;50.070;8.232;2023-08-24T03:16:03;100035.44;;;22.29;54.65
15817;BME280;8009;50.070;8.232;2023-08-24T03:18:35;100027.94;;;22.37;54.52
15817;BME280;8009;50.070;8.232;2023-08-24T03:21:03;100032.38;;;22.38;54.62
15817;BME280;8009;50.070;8.232;2023-08-24T03:23:31;100034.41;;;21.48;56.54
15817;BME280;8009;50.070;8.232;2023-08-24T03:26:00;100019.09;;;21.98;55.87
15817;BME280;8009;50.070;8.232;2023-08-24T03:28:28;100019.69;;;22.23;55.19
15817;BME280;8009;50.070;8.232;2023-08-24T03:30:56;100003.94;;;22.17;55.55
15817;BME280;8009;50.070;8.232;2023-08-24T03:33:25;100006.50;;;21.88;56.48
15817;BME280;8009;50.070;8.232;2023-08-24T03:35:56;100010.84;;;21.98;55.42
15817;BME280;8009;50.070;8.232;2023-08-24T03:38:24;99997.91;;;22.57;53.83
15817;BME280;8009;50.070;8.232;2023-08-24T03:40:59;99995.63;;;22.61;54.60
15817;BME280;8009;50.070;8.232;2023-08-24T03:43:28;99993.41;;;22.35;55.61
15817;BME280;8009;50.070;8.232;2023-08-24T03:45:56;99996.38;;;22.33;54.74
15817;BME280;8009;50.070;8.232;2023-08-24T03:48:26;99994.38;;;22.27;55.21
15817;BME280;8009;50.070;8.232;2023-08-24T03:50:57;100001.56;;;22.28;54.80
15817;BME280;8009;50.070;8.232;2023-08-24T03:53:26;99989.06;;;22.41;54.54
15817;BME280;8009;50.070;8.232;2023-08-24T03:55:54;99984.97;;;22.36;54.60
15817;BME280;8009;50.070;8.232;2023-08-24T03:58:23;99974.63;;;22.38;55.03
15817;BME280;8009;50.070;8.232;2023-08-24T04:00:51;99963.53;;;22.32;54.48
15817;BME280;8009;50.070;8.232;2023-08-24T04:03:20;99951.00;;;22.44;54.89
15817;BME280;8009;50.070;8.232;2023-08-24T04:05:49;99946.09;;;22.61;55.21
15817;BME280;8009;50.070;8.232;2023-08-24T04:08:19;99953.75;;;22.66;54.41
15817;BME280;8009;50.070;8.232;2023-08-24T04:10:48;99962.47;;;22.69;54.65
15817;BME280;8009;50.070;8.232;2023-08-24T04:13:16;99973.94;;;22.51;54.35
15817;BME280;8009;50.070;8.232;2023-08-24T04:15:44;99975.78;;;22.29;55.40
15817;BME280;8009;50.070;8.232;2023-08-24T04:18:13;99981.63;;;22.56;54.80
15817;BME280;8009;50.070;8.232;2023-08-24T04:20:41;99973.81;;;22.81;54.88
15817;BME280;8009;50.070;8.232;2023-08-24T04:23:12;99971.53;;;22.84;54.27
15817;BME280;8009;50.070;8.232;2023-08-24T04:25:44;99966.75;;;22.93;54.67
15817;BME280;8009;50.070;8.232;2023-08-24T04:28:12;99964.41;;;22.90;54.51
15817;BME280;8009;50.070;8.232;2023-08-24T04:30:40;99953.00;;;22.93;53.94
15817;BME280;8009;50.070;8.232;2023-08-24T04:33:09;99951.47;;;22.91;53.97
15817;BME280;8009;50.070;8.232;2023-08-24T04:35:37;99961.53;;;22.41;56.36
15817;BME280;8009;50.070;8.232;2023-08-24T04:38:05;99980.13;;;22.75;55.03
15817;BME280;8009;50.070;8.232;2023-08-24T04:40:48;100002.47;;;22.86;54.66
15817;BME280;8009;50.070;8.232;2023-08-24T04:43:17;100024.13;;;22.90;54.16
15817;BME280;8009;50.070;8.232;2023-08-24T04:45:46;100045.09;;;22.39;54.85
15817;BME280;8009;50.070;8.232;2023-08-24T04:48:17;100053.91;;;22.35;54.83
15817;BME280;8009;50.070;8.232;2023-08-24T04:50:46;100067.06;;;22.69;54.72
15817;BME280;8009;50.070;8.232;2023-08-24T04:53:16;100091.59;;;22.34;56.12
15817;BME280;8009;50.070;8.232;2023-08-24T04:55:47;100108.09;;;22.34;58.07
15817;BME280;8009;50.070;8.232;2023-08-24T04:58:16;100127.13;;;22.80;56.59
15817;BME280;8009;50.070;8.232;2023-08-24T05:00:44;100141.78;;;22.51;58.09
15817;BME280;8009;50.070;8.232;2023-08-24T05:03:14;100153.22;;;22.84;56.92
15817;BME280;8009;50.070;8.232;2023-08-24T05:05:42;100160.16;;;22.95;57.27
15817;BME280;8009;50.070;8.232;2023-08-24T05:08:10;100166.88;;;23.07;57.81
15817;BME280;8009;50.070;8.232;2023-08-24T05:10:39;100173.81;;;22.88;55.67
15817;BME280;8009;50.070;8.232;2023-08-24T05:13:11;100173.75;;;22.82;55.96
15817;BME280;8009;50.070;8.232;2023-08-24T05:15:40;100169.84;;;22.76;56.23
15817;BME280;8009;50.070;8.232;2023-08-24T05:18:08;100176.19;;;22.47;56.09
15817;BME280;8009;50.070;8.232;2023-08-24T05:20:36;100162.53;;;22.01;57.16
15817;BME280;8009;50.070;8.232;2023-08-24T05:23:04;100164.13;;;22.19;56.98
15817;BME280;8009;50.070;8.232;2023-08-24T05:25:33;100152.28;;;22.62;56.82
15817;BME280;8009;50.070;8.232;2023-08-24T05:28:02;100149.13;;;22.80;55.85
15817;BME280;8009;50.070;8.232;2023-08-24T05:30:34;100145.44;;;23.03;56.51
15817;BME280;8009;50.070;8.232;2023-08-24T05:35:37;100156.53;;;22.21;59.58
15817;BME280;8009;50.070;8.232;2023-08-24T05:38:06;100159.97;;;22.23;59.10
15817;BME280;8009;50.070;8.232;2023-08-24T05:40:34;100150.56;;;22.47;58.74
15817;BME280;8009;50.070;8.232;2023-08-24T05:43:03;100164.22;;;22.70;58.89
15817;BME280;8009;50.070;8.232;2023-08-24T05:45:34;100174.09;;;22.20;60.20
15817;BME280;8009;50.070;8.232;2023-08-24T05:48:05;100169.56;;;22.04;60.71
15817;BME280;8009;50.070;8.232;2023-08-24T05:50:34;100184.44;;;22.77;58.73
15817;BME280;8009;50.070;8.232;2023-08-24T05:53:07;100173.19;;;23.01;58.16
15817;BME280;8009;50.070;8.232;2023-08-24T05:55:35;100176.19;;;23.06;58.46
15817;BME280;8009;50.070;8.232;2023-08-24T05:58:03;100181.03;;;23.04;58.65
15817;BME280;8009;50.070;8.232;2023-08-24T06:00:36;100174.66;;;23.04;58.90
15817;BME280;8009;50.070;8.232;2023-08-24T06:03:04;100156.66;;;23.01;59.57
15817;BME280;8009;50.070;8.232;2023-08-24T06:05:33;100141.63;;;23.04;59.42
15817;BME280;8009;50.070;8.232;2023-08-24T06:08:01;100143.53;;;22.88;60.47
15817;BME280;8009;50.070;8.232;2023-08-24T06:10:30;100150.09;;;22.73;62.31
15817;BME280;8009;50.070;8.232;2023-08-24T06:12:59;100159.69;;;22.18;63.73
15817;BME280;8009;50.070;8.232;2023-08-24T06:15:27;100155.22;;;21.94;65.76
15817;BME280;8009;50.070;8.232;2023-08-24T06:17:58;100147.44;;;22.35;65.66
15817;BME280;8009;50.070;8.232;2023-08-24T06:20:26;100124.00;;;22.69;64.44
15817;BME280;8009;50.070;8.232;2023-08-24T06:22:55;100105.34;;;22.49;65.38
15817;BME280;8009;50.070;8.232;2023-08-24T06:25:24;100083.09;;;22.66;63.23
15817;BME280;8009;50.070;8.232;2023-08-24T06:27:52;100063.47;;;22.69;63.14
15817;BME280;8009;50.070;8.232;2023-08-24T06:30:20;100039.13;;;22.36;64.06
15817;BME280;8009;50.070;8.232;2023-08-24T06:32:49;100023.66;;;22.50;63.06
15817;BME280;8009;50.070;8.232;2023-08-24T06:35:20;100038.00;;;22.30;62.22
15817;BME280;8009;50.070;8.232;2023-08-24T06:37:48;100049.06;;;22.07;64.84
15817;BME280;8009;50.070;8.232;2023-08-24T06:40:17;100054.09;;;22.04;66.78
15817;BME280;8009;50.070;8.232;2023-08-24T06:43:09;100058.31;;;22.14;67.57
15817;BME280;8009;50.070;8.232;2023-08-24T07:04:45;100030.25;;;23.28;61.44
15817;BME280;8009;50.070;8.232;2023-08-24T07:16:47;100052.97;;;23.15;66.58
15817;BME280;8009;50.070;8.232;2023-08-24T07:19:16;100053.72;;;22.87;66.00
15817;BME280;8009;50.070;8.232;2023-08-24T07:21:47;100051.13;;;23.01;66.61
15817;BME280;8009;50.070;8.232;2023-08-24T07:24:23;100051.06;;;23.16;65.69
15817;BME280;8009;50.070;8.232;2023-08-24T07:26:54;100043.59;;;23.52;62.86
15817;BME280;8009;50.070;8.232;2023-08-24T07:29:24;100052.66;;;22.67;66.85
15817;BME280;8009;50.070;8.232;2023-08-24T07:31:52;100060.16;;;23.09;66.48
15817;BME280;8009;50.070;8.232;2023-08-24T07:34:20;100066.91;;;23.28;65.82
15817;BME280;8009;50.070;8.232;2023-08-24T07:40:03;100049.97;;;22.74;65.04
15817;BME280;8009;50.070;8.232;2023-08-24T08:27:03;99970.78;;;24.03;64.17
15817;BME280;8009;50.070;8.232;2023-08-24T08:29:33;99960.63;;;23.69;65.14
15817;BME280;8009;50.070;8.232;2023-08-24T08:48:01;99974.66;;;24.15;61.27
15817;BME280;8009;50.070;8.232;2023-08-24T08:54:11;99961.00;;;24.42;63.50
15817;BME280;8009;50.070;8.232;2023-08-24T08:56:43;99956.41;;;24.62;58.61
15817;BME280;8009;50.070;8.232;2023-08-24T09:02:27;99971.31;;;24.88;61.18
15817;BME280;8009;50.070;8.232;2023-08-24T09:04:59;99965.44;;;25.17;59.26
15817;BME280;8009;50.070;8.232;2023-08-24T09:07:41;99958.22;;;25.36;58.70
15817;BME280;8009;50.070;8.232;2023-08-24T09:10:42;99952.25;;;25.33;56.57
15817;BME280;8009;50.070;8.232;2023-08-24T09:13:11;99944.19;;;25.18;55.37
15817;BME280;8009;50.070;8.232;2023-08-24T09:15:39;99933.34;;;25.36;54.27
15817;BME280;8009;50.070;8.232;2023-08-24T09:18:09;99928.44;;;25.18;58.84
15817;BME280;8009;50.070;8.232;2023-08-24T09:20:40;99913.38;;;25.27;54.24
15817;BME280;8009;50.070;8.232;2023-08-24T09:23:17;99916.94;;;25.48;52.57
15817;BME280;8009;50.070;8.232;2023-08-24T09:25:58;99910.47;;;26.00;50.54
15817;BME280;8009;50.070;8.232;2023-08-24T09:28:26;99906.41;;;26.03;54.51
15817;BME280;8009;50.070;8.232;2023-08-24T09:31:00;99903.78;;;26.21;52.13
15817;BME280;8009;50.070;8.232;2023-08-24T09:33:29;99887.28;;;26.46;53.54
15817;BME280;8009;50.070;8.232;2023-08-24T09:36:00;99884.56;;;26.71;47.95
15817;BME280;8009;50.070;8.232;2023-08-24T09:38:29;99864.03;;;26.47;49.65
15817;BME280;8009;50.070;8.232;2023-08-24T09:40:58;99858.63;;;26.91;48.21
15817;BME280;8009;50.070;8.232;2023-08-24T09:43:30;99849.03;;;27.37;46.80
15817;BME280;8009;50.070;8.232;2023-08-24T09:45:58;99846.13;;;27.50;48.10
15817;BME280;8009;50.070;8.232;2023-08-24T09:48:28;99844.84;;;27.28;46.66
15817;BME280;8009;50.070;8.232;2023-08-24T09:50:57;99840.94;;;27.17;48.10
15817;BME280;8009;50.070;8.232;2023-08-24T09:53:28;99837.78;;;27.50;49.46
15817;BME280;8009;50.070;8.232;2023-08-24T09:56:01;99831.31;;;27.38;48.54
15817;BME280;8009;50.070;8.232;2023-08-24T09:58:31;99823.22;;;27.73;46.58
15817;BME280;8009;50.070;8.232;2023-08-24T10:01:02;99828.56;;;27.56;44.22
15817;BME280;8009;50.070;8.232;2023-08-24T10:03:44;99832.72;;;28.32;44.22
15817;BME280;8009;50.070;8.232;2023-08-24T10:08:54;99831.47;;;28.16;45.87
15817;BME280;8009;50.070;8.232;2023-08-24T10:16:50;99829.47;;;28.05;45.30
15817;BME280;8009;50.070;8.232;2023-08-24T10:19:19;99829.06;;;28.20;46.42
15817;BME280;8009;50.070;8.232;2023-08-24T10:21:50;99833.72;;;28.38;46.47
15817;BME280;8009;50.070;8.232;2023-08-24T10:24:21;99826.31;;;28.62;45.40
15817;BME280;8009;50.070;8.232;2023-08-24T10:26:50;99827.38;;;28.31;47.57
15817;BME280;8009;50.070;8.232;2023-08-24T10:29:19;99812.91;;;28.29;43.83
15817;BME280;8009;50.070;8.232;2023-08-24T10:34:23;99798.03;;;28.23;46.48
15817;BME280;8009;50.070;8.232;2023-08-24T10:42:10;99782.31;;;28.47;45.04
15817;BME280;8009;50.070;8.232;2023-08-24T11:18:28;99768.47;;;28.94;41.00
15817;BME280;8009;50.070;8.232;2023-08-24T11:21:00;99769.88;;;28.19;42.09
15817;BME280;8009;50.070;8.232;2023-08-24T11:23:30;99760.34;;;28.69;41.93
15817;BME280;8009;50.070;8.232;2023-08-24T11:26:00;99760.47;;;28.51;41.92
15817;BME280;8009;50.070;8.232;2023-08-24T11:28:30;99752.53;;;28.66;42.14
15817;BME280;8009;50.070;8.232;2023-08-24T11:30:59;99737.63;;;28.37;43.17
15817;BME280;8009;50.070;8.232;2023-08-24T11:33:31;99737.72;;;27.70;43.54
15817;BME280;8009;50.070;8.232;2023-08-24T11:36:03;99741.75;;;28.16;45.78
15817;BME280;8009;50.070;8.232;2023-08-24T11:38:36;99737.72;;;27.70;43.58
15817;BME280;8009;50.070;8.232;2023-08-24T11:41:12;99739.22;;;28.03;43.14
15817;BME280;8009;50.070;8.232;2023-08-24T11:43:41;99740.00;;;27.73;44.53
15817;BME280;8009;50.070;8.232;2023-08-24T11:46:10;99736.38;;;27.91;43.17
15817;BME280;8009;50.070;8.232;2023-08-24T11:48:43;99731.78;;;27.85;44.15
15817;BME280;8009;50.070;8.232;2023-08-24T11:51:12;99727.44;;;28.31;45.40
15817;BME280;8009;50.070;8.232;2023-08-24T11:53:42;99718.19;;;27.95;43.52
15817;BME280;8009;50.070;8.232;2023-08-24T11:56:11;99726.66;;;28.12;43.15
15817;BME280;8009;50.070;8.232;2023-08-24T11:58:43;99727.06;;;27.55;45.12
15817;BME280;8009;50.070;8.232;2023-08-24T12:01:12;99721.59;;;27.97;44.00
15817;BME280;8009;50.070;8.232;2023-08-24T12:03:43;99710.56;;;28.32;43.17
15817;BME280;8009;50.070;8.232;2023-08-24T12:06:13;99703.41;;;28.13;44.18
15817;BME280;8009;50.070;8.232;2023-08-24T12:08:42;99711.75;;;27.83;43.63
15817;BME280;8009;50.070;8.232;2023-08-24T12:11:13;99699.13;;;27.99;42.58
15817;BME280;8009;50.070;8.232;2023-08-24T12:13:48;99696.34;;;27.87;43.56
15817;BME280;8009;50.070;8.232;2023-08-24T12:16:17;99696.47;;;27.92;43.96
15817;BME280;8009;50.070;8.232;2023-08-24T12:18:53;99700.13;;;27.26;44.62
15817;BME280;8009;50.070;8.232;2023-08-24T12:21:22;99686.81;;;27.64;44.21
15817;BME280;8009;50.070;8.232;2023-08-24T12:23:57;99687.94;;;27.45;45.32
15817;BME280;8009;50.070;8.232;2023-08-24T12:26:26;99677.56;;;27.40;44.78
15817;BME280;8009;50.070;8.232;2023-08-24T12:29:05;99672.84;;;27.71;44.50
15817;BME280;8009;50.070;8.232;2023-08-24T12:31:34;99670.19;;;27.94;43.10
15817;BME280;8009;50.070;8.232;2023-08-24T12:34:06;99673.63;;;28.20;42.43
15817;BME280;8009;50.070;8.232;2023-08-24T12:36:36;99681.44;;;28.35;43.81
15817;BME280;8009;50.070;8.232;2023-08-24T12:39:07;99680.59;;;28.11;43.46
15817;BME280;8009;50.070;8.232;2023-08-24T12:41:37;99682.59;;;28.46;44.13
15817;BME280;8009;50.070;8.232;2023-08-24T13:03:30;99691.13;;;28.21;44.95
15817;BME280;8009;50.070;8.232;2023-08-24T13:05:59;99691.97;;;28.33;46.61
15817;BME280;8009;50.070;8.232;2023-08-24T13:08:48;99690.97;;;28.27;45.50
15817;BME280;8009;50.070;8.232;2023-08-24T13:11:17;99690.59;;;28.24;46.47
15817;BME280;8009;50.070;8.232;2023-08-24T13:13:48;99703.53;;;28.18;44.40
15817;BME280;8009;50.070;8.232;2023-08-24T13:16:16;99707.31;;;28.35;45.81
15817;BME280;8009;50.070;8.232;2023-08-24T13:22:03;99721.34;;;28.40;45.46
15817;BME280;8009;50.070;8.232;2023-08-24T13:24:39;99729.75;;;27.92;46.83
15817;BME280;8009;50.070;8.232;2023-08-24T13:27:09;99726.38;;;27.90;47.42
15817;BME280;8009;50.070;8.232;2023-08-24T13:29:38;99733.38;;;27.92;46.89
15817;BME280;8009;50.070;8.232;2023-08-24T13:32:08;99749.38;;;27.60;48.57
15817;BME280;8009;50.070;8.232;2023-08-24T13:34:37;99756.59;;;27.80;48.45
15817;BME280;8009;50.070;8.232;2023-08-24T13:37:09;99765.19;;;27.78;49.12
15817;BME280;8009;50.070;8.232;2023-08-24T13:39:38;99776.47;;;27.58;48.55
15817;BME280;8009;50.070;8.232;2023-08-24T13:42:06;99778.94;;;27.85;49.37
15817;BME280;8009;50.070;8.232;2023-08-24T13:44:35;99792.91;;;27.78;47.98
15817;BME280;8009;50.070;8.232;2023-08-24T13:47:04;99798.38;;;27.30;50.43
15817;BME280;8009;50.070;8.232;2023-08-24T13:49:33;99791.19;;;27.77;48.08
15817;BME280;8009;50.070;8.232;2023-08-24T13:52:02;99792.44;;;27.26;49.55
15817;BME280;8009;50.070;8.232;2023-08-24T13:54:34;99757.88;;;27.96;47.61
15817;BME280;8009;50.070;8.232;2023-08-24T13:57:03;99725.94;;;28.05;50.57
15817;BME280;8009;50.070;8.232;2023-08-24T13:59:34;99668.31;;;27.58;49.24
15817;BME280;8009;50.070;8.232;2023-08-24T14:02:04;99573.84;;;27.72;49.29
15817;BME280;8009;50.070;8.232;2023-08-24T14:04:35;99513.69;;;27.72;48.55
15817;BME280;8009;50.070;8.232;2023-08-24T14:07:03;99490.31;;;27.91;46.65
15817;BME280;8009;50.070;8.232;2023-08-24T14:09:34;99463.50;;;27.74;47.30
15817;BME280;8009;50.070;8.232;2023-08-24T14:12:04;99436.38;;;27.64;47.21
15817;BME280;8009;50.070;8.232;2023-08-24T14:14:32;99442.91;;;27.93;46.31
15817;BME280;8009;50.070;8.232;2023-08-24T14:17:01;99474.75;;;28.02;46.41
15817;BME280;8009;50.070;8.232;2023-08-24T14:19:33;99499.47;;;27.92;45.45
15817;BME280;8009;50.070;8.232;2023-08-24T14:22:02;99512.38;;;28.10;45.13
15817;BME280;8009;50.070;8.232;2023-08-24T14:24:31;99548.56;;;28.03;44.43
15817;BME280;8009;50.070;8.232;2023-08-24T14:27:04;99603.97;;;28.10;46.46
15817;BME280;8009;50.070;8.232;2023-08-24T14:29:32;99646.28;;;27.93;47.49
15817;BME280;8009;50.070;8.232;2023-08-24T14:32:01;99672.66;;;27.84;46.42
15817;BME280;8009;50.070;8.232;2023-08-24T14:34:31;99689.41;;;27.78;45.75
15817;BME280;8009;50.070;8.232;2023-08-24T14:36:59;99714.31;;;27.96;46.37
15817;BME280;8009;50.070;8.232;2023-08-24T14:39:28;99740.13;;;27.97;46.59
15817;BME280;8009;50.070;8.232;2023-08-24T14:41:57;99751.53;;;27.58;49.05
15817;BME280;8009;50.070;8.232;2023-08-24T14:44:32;99744.47;;;27.92;47.27
15817;BME280;8009;50.070;8.232;2023-08-24T14:47:08;99744.75;;;28.03;50.97
15817;BME280;8009;50.070;8.232;2023-08-24T14:49:40;99735.69;;;27.96;50.86
15817;BME280;8009;50.070;8.232;2023-08-24T14:52:08;99731.09;;;27.89;53.08
15817;BME280;8009;50.070;8.232;2023-08-24T14:54:37;99725.25;;;27.79;49.69
15817;BME280;8009;50.070;8.232;2023-08-24T14:57:06;99712.34;;;27.85;50.93
15817;BME280;8009;50.070;8.232;2023-08-24T14:59:37;99683.06;;;27.89;51.54
15817;BME280;8009;50.070;8.232;2023-08-24T15:02:06;99673.75;;;27.53;51.59
15817;BME280;8009;50.070;8.232;2023-08-24T15:04:34;99662.47;;;27.36;51.95
15817;BME280;8009;50.070;8.232;2023-08-24T15:07:04;99647.66;;;27.42;51.36
15817;BME280;8009;50.070;8.232;2023-08-24T15:09:33;99627.94;;;27.62;51.26
15817;BME280;8009;50.070;8.232;2023-08-24T15:12:05;99606.28;;;27.29;51.57
15817;BME280;8009;50.070;8.232;2023-08-24T15:14:58;99591.97;;;26.95;52.37
15817;BME280;8009;50.070;8.232;2023-08-24T15:20:41;99543.47;;;27.23;50.31
15817;BME280;8009;50.070;8.232;2023-08-24T15:26:24;99524.44;;;27.27;49.96
15817;BME280;8009;50.070;8.232;2023-08-24T15:32:07;99523.84;;;27.25;50.25
15817;BME280;8009;50.070;8.232;2023-08-24T15:34:47;99516.00;;;27.21;49.36
15817;BME280;8009;50.070;8.232;2023-08-24T15:37:18;99512.25;;;26.97;51.05
15817;BME280;8009;50.070;8.232;2023-08-24T15:39:47;99499.38;;;27.21;49.59
15817;BME280;8009;50.070;8.232;2023-08-24T15:42:16;99505.91;;;27.09;49.83
15817;BME280;8009;50.070;8.232;2023-08-24T15:44:44;99519.88;;;27.02;49.92
15817;BME280;8009;50.070;8.232;2023-08-24T15:47:16;99553.84;;;27.28;49.83
15817;BME280;8009;50.070;8.232;2023-08-24T15:49:45;99600.69;;;26.99;50.81
15817;BME280;8009;50.070;8.232;2023-08-24T15:52:13;99657.69;;;26.70;51.98
15817;BME280;8009;50.070;8.232;2023-08-24T15:54:42;99701.78;;;26.21;52.47
15817;BME280;8009;50.070;8.232;2023-08-24T15:57:12;99728.13;;;26.24;51.35
15817;BME280;8009;50.070;8.232;2023-08-24T15:59:42;99709.06;;;26.66;50.01
15817;BME280;8009;50.070;8.232;2023-08-24T16:02:10;99647.31;;;26.84;48.38
15817;BME280;8009;50.070;8.232;2023-08-24T16:04:41;99612.38;;;26.64;49.10
15817;BME280;8009;50.070;8.232;2023-08-24T16:07:10;99629.84;;;26.65;47.42
15817;BME280;8009;50.070;8.232;2023-08-24T16:09:39;99621.53;;;26.83;48.69
15817;BME280;8009;50.070;8.232;2023-08-24T16:12:08;99593.91;;;26.58;50.26
15817;BME280;8009;50.070;8.232;2023-08-24T16:14:36;99571.31;;;26.61;50.68
15817;BME280;8009;50.070;8.232;2023-08-24T16:17:05;99582.44;;;26.55;52.25
15817;BME280;8009;50.070;8.232;2023-08-24T16:19:33;99593.72;;;26.10;52.38
15817;BME280;8009;50.070;8.232;2023-08-24T16:22:04;99589.38;;;26.20;52.21
15817;BME280;8009;50.070;8.232;2023-08-24T16:24:35;99598.22;;;25.86;54.07